Time;durP1;ratioP1;P1;durP2;ratioP2;P2;SDS_P1;SDS_P2;PMS_P1;PMS_P2;Temp;Humidity;BMP_temperature;BMP_pressure;BME280_temperature;BME280_humidity;BME280_pressure;Samples;Min_cycle;Max_cycle;Signal;HPM_P1;HPM_P2
2022/07/22 00:01:50;;;;;;;7.50;6.80;;;21.90;99.90;;;;;;5018901;28;20191;-65
2022/07/22 00:04:16;;;;;;;7.27;6.67;;;22.10;99.90;;;;;;5044110;23;20608;-67
2022/07/22 00:06:42;;;;;;;8.23;7.63;;;22.10;99.90;;;;;;5035124;28;20310;-69
2022/07/22 00:09:08;;;;;;;7.90;7.20;;;22.10;99.90;;;;;;5037224;28;20758;-69
2022/07/22 00:11:34;;;;;;;6.93;6.23;;;22.00;99.90;;;;;;5040142;28;20413;-69
2022/07/22 00:14:00;;;;;;;7.73;7.00;;;22.10;99.90;;;;;;5055812;28;20169;-68
2022/07/22 00:16:26;;;;;;;7.63;7.03;;;22.10;99.90;;;;;;5055528;28;20448;-69
2022/07/22 00:18:51;;;;;;;8.43;7.63;;;22.00;99.90;;;;;;5055743;28;20237;-69
2022/07/22 00:21:17;;;;;;;7.20;6.57;;;21.80;99.90;;;;;;5055360;28;20182;-68
2022/07/22 00:23:43;;;;;;;6.83;6.33;;;21.80;99.90;;;;;;5055878;28;20166;-69
2022/07/22 00:26:08;;;;;;;7.57;6.93;;;21.60;99.90;;;;;;5055326;28;20222;-69
2022/07/22 00:28:34;;;;;;;7.60;7.00;;;21.70;99.90;;;;;;5055522;28;20174;-69
2022/07/22 00:31:00;;;;;;;8.50;7.30;;;21.80;99.90;;;;;;5036804;28;20162;-69
2022/07/22 00:33:25;;;;;;;7.20;6.67;;;21.70;99.90;;;;;;5037259;28;20166;-69
2022/07/22 00:35:51;;;;;;;7.97;7.23;;;21.60;99.90;;;;;;5055370;28;20348;-69
2022/07/22 00:38:17;;;;;;;10.77;7.07;;;21.60;99.90;;;;;;5055658;28;20228;-69
2022/07/22 00:40:42;;;;;;;6.93;6.33;;;21.60;99.90;;;;;;5055541;28;20274;-69
2022/07/22 00:43:08;;;;;;;7.30;6.70;;;21.50;99.90;;;;;;5055536;28;20262;-68
2022/07/22 00:45:33;;;;;;;7.80;7.00;;;21.50;99.90;;;;;;5055392;28;20213;-68
2022/07/22 00:47:59;;;;;;;7.73;7.00;;;21.40;99.90;;;;;;5036818;28;20166;-69
2022/07/22 00:50:25;;;;;;;7.50;6.80;;;21.40;99.90;;;;;;5053986;28;20221;-69
2022/07/22 00:52:51;;;;;;;8.13;7.33;;;21.40;99.90;;;;;;5055095;28;20518;-69
2022/07/22 00:55:16;;;;;;;7.30;6.60;;;21.40;99.90;;;;;;5055211;28;20193;-68
2022/07/22 00:57:42;;;;;;;7.87;7.17;;;21.40;99.90;;;;;;5055090;28;20419;-69
2022/07/22 01:00:12;;;;;;;7.77;7.17;;;21.40;99.90;;;;;;5054938;28;20167;-69
2022/07/22 01:02:37;;;;;;;7.87;7.27;;;21.40;99.90;;;;;;5054842;28;20162;-69
2022/07/22 01:05:05;;;;;;;7.37;6.57;;;21.30;99.90;;;;;;5036849;28;20467;-69
2022/07/22 01:07:30;;;;;;;8.40;7.47;;;21.30;99.90;;;;;;5037017;28;20170;-70
2022/07/22 01:09:56;;;;;;;7.07;6.37;;;21.10;99.90;;;;;;5055052;28;20454;-68
2022/07/22 01:12:22;;;;;;;7.13;6.43;;;21.10;99.90;;;;;;5036951;28;20249;-69
2022/07/22 01:14:47;;;;;;;8.17;7.27;;;21.20;99.90;;;;;;5054447;28;20667;-69
2022/07/22 01:17:13;;;;;;;7.83;6.90;;;21.20;99.90;;;;;;5052935;28;20229;-68
2022/07/22 01:19:38;;;;;;;8.60;7.17;;;21.10;99.90;;;;;;5055232;28;20166;-69
2022/07/22 01:22:05;;;;;;;7.50;6.90;;;21.20;99.90;;;;;;5053405;28;20169;-68
2022/07/22 01:24:31;;;;;;;7.23;6.63;;;21.20;99.90;;;;;;5055121;28;20159;-68
2022/07/22 01:26:57;;;;;;;8.03;7.33;;;21.10;99.90;;;;;;5053263;28;20420;-69
2022/07/22 01:29:22;;;;;;;8.33;7.63;;;21.10;99.90;;;;;;5036725;28;20192;-68
2022/07/22 01:31:48;;;;;;;8.93;8.03;;;21.10;99.90;;;;;;5054269;28;20627;-66
2022/07/22 01:34:13;;;;;;;8.60;7.90;;;21.00;99.90;;;;;;5054222;28;20185;-69
2022/07/22 01:36:39;;;;;;;9.30;8.50;;;21.10;99.90;;;;;;5054320;28;20194;-68
2022/07/22 01:39:04;;;;;;;8.30;7.23;;;21.20;99.90;;;;;;5019925;28;20201;-69
2022/07/22 01:41:30;;;;;;;7.90;7.20;;;21.00;99.90;;;;;;5034066;28;20191;-69
2022/07/22 01:43:56;;;;;;;8.57;7.77;;;20.90;99.90;;;;;;5034462;28;20167;-70
2022/07/22 01:46:23;;;;;;;9.00;8.30;;;20.90;99.90;;;;;;5036372;28;20273;-69
2022/07/22 01:48:49;;;;;;;9.23;8.43;;;20.80;99.90;;;;;;5054053;28;20178;-69
2022/07/22 01:51:15;;;;;;;8.33;7.53;;;20.80;99.90;;;;;;5039830;28;20434;-69
2022/07/22 01:53:40;;;;;;;8.17;7.57;;;20.80;99.90;;;;;;5016444;28;20449;-68
2022/07/22 01:56:06;;;;;;;8.00;7.40;;;20.90;99.90;;;;;;5016307;28;20199;-69
2022/07/22 01:58:32;;;;;;;8.37;7.67;;;20.80;99.90;;;;;;5043264;28;20191;-68
2022/07/22 02:00:58;;;;;;;8.40;7.60;;;20.90;99.90;;;;;;5053888;28;20163;-68
2022/07/22 02:03:24;;;;;;;8.50;7.70;;;20.90;99.90;;;;;;5035187;28;20222;-68
2022/07/22 02:05:49;;;;;;;8.57;7.87;;;20.60;99.90;;;;;;5053597;28;20907;-68
2022/07/22 02:08:15;;;;;;;8.30;7.60;;;20.60;99.90;;;;;;5053881;28;20184;-68
2022/07/22 02:10:41;;;;;;;9.77;8.67;;;20.60;99.90;;;;;;5053678;28;20174;-69
2022/07/22 02:13:07;;;;;;;8.57;7.77;;;20.70;99.90;;;;;;5053654;28;20166;-69
2022/07/22 02:15:33;;;;;;;8.50;7.80;;;20.70;99.90;;;;;;5053949;28;20252;-69
2022/07/22 02:17:58;;;;;;;8.60;7.80;;;20.80;99.90;;;;;;5053031;28;20793;-69
2022/07/22 02:20:24;;;;;;;8.70;7.70;;;20.90;99.90;;;;;;5053441;28;20746;-69
2022/07/22 02:22:50;;;;;;;8.80;8.10;;;20.90;99.90;;;;;;5035690;28;20166;-69
2022/07/22 02:25:15;;;;;;;9.43;8.57;;;20.90;99.90;;;;;;5053580;28;20190;-69
2022/07/22 02:27:42;;;;;;;11.63;8.27;;;20.80;99.90;;;;;;5053809;28;20182;-69
2022/07/22 02:30:08;;;;;;;8.03;7.33;;;20.80;99.90;;;;;;5035366;28;20260;-68
2022/07/22 02:32:35;;;;;;;8.90;8.10;;;20.80;99.90;;;;;;5052376;28;20774;-69
2022/07/22 02:35:00;;;;;;;8.77;8.00;;;20.80;99.90;;;;;;5053356;28;20428;-68
2022/07/22 02:37:26;;;;;;;8.87;7.97;;;20.70;99.90;;;;;;5053009;28;20456;-69
2022/07/22 02:39:52;;;;;;;10.30;9.60;;;20.70;99.90;;;;;;5053393;28;20293;-69
2022/07/22 02:42:17;;;;;;;10.30;9.40;;;20.60;99.90;;;;;;5053062;28;20191;-69
2022/07/22 02:44:43;;;;;;;9.30;8.50;;;20.50;99.90;;;;;;5053013;28;20193;-68
2022/07/22 02:47:08;;;;;;;8.53;7.90;;;20.40;99.90;;;;;;5052610;28;20251;-68
2022/07/22 02:49:34;;;;;;;9.40;8.40;;;20.40;99.90;;;;;;5053032;28;20183;-68
2022/07/22 02:52:00;;;;;;;9.53;8.63;;;20.40;99.90;;;;;;5053035;28;20175;-69
2022/07/22 02:54:26;;;;;;;8.90;8.10;;;20.40;99.90;;;;;;5053203;28;20174;-69
2022/07/22 02:56:51;;;;;;;10.77;9.80;;;20.20;99.90;;;;;;5035249;28;20198;-68
2022/07/22 02:59:17;;;;;;;8.57;7.87;;;20.20;99.90;;;;;;5030422;28;20171;-69
2022/07/22 03:01:43;;;;;;;9.43;8.60;;;20.20;99.90;;;;;;5013548;28;20589;-69
2022/07/22 03:04:08;;;;;;;8.50;7.80;;;20.40;99.90;;;;;;5013336;28;20222;-69
2022/07/22 03:06:34;;;;;;;9.77;9.07;;;20.40;99.90;;;;;;5013178;28;20203;-69
2022/07/22 03:08:59;;;;;;;10.33;9.40;;;20.30;99.90;;;;;;5013304;28;20183;-69
2022/07/22 03:11:25;;;;;;;9.03;8.13;;;20.30;99.90;;;;;;5013196;28;20175;-69
2022/07/22 03:13:50;;;;;;;9.07;8.37;;;20.40;99.90;;;;;;5013240;28;20168;-69
2022/07/22 03:16:16;;;;;;;10.30;9.40;;;20.40;99.90;;;;;;5013047;28;20262;-68
2022/07/22 03:18:41;;;;;;;9.93;8.97;;;20.30;99.90;;;;;;5012759;28;20167;-68
2022/07/22 03:21:07;;;;;;;11.27;10.23;;;20.20;99.90;;;;;;5013159;28;20200;-68
2022/07/22 03:23:33;;;;;;;10.00;9.00;;;20.10;99.90;;;;;;5013166;28;20160;-69
2022/07/22 03:25:58;;;;;;;8.90;8.20;;;20.20;99.90;;;;;;5013167;28;20274;-69
2022/07/22 03:28:24;;;;;;;9.63;8.63;;;20.20;99.90;;;;;;5021839;28;20250;-69
2022/07/22 03:30:49;;;;;;;9.73;8.93;;;20.20;99.90;;;;;;5033068;28;20167;-69
2022/07/22 03:33:15;;;;;;;10.13;8.93;;;20.20;99.90;;;;;;5032424;28;20167;-68
2022/07/22 03:35:41;;;;;;;10.17;9.30;;;20.20;99.90;;;;;;5032913;28;20206;-70
2022/07/22 03:38:06;;;;;;;10.83;9.87;;;20.10;99.90;;;;;;5033230;28;20169;-68
2022/07/22 03:40:32;;;;;;;10.27;9.37;;;20.10;99.90;;;;;;5032775;28;20206;-69
2022/07/22 03:42:58;;;;;;;10.17;9.13;;;20.10;99.90;;;;;;5032721;28;20176;-68
2022/07/22 03:45:23;;;;;;;10.13;9.33;;;20.10;99.90;;;;;;5035743;28;20290;-69
2022/07/22 03:47:49;;;;;;;11.03;10.00;;;20.00;99.90;;;;;;5035922;28;20568;-67
2022/07/22 03:50:14;;;;;;;10.03;9.13;;;19.90;99.90;;;;;;5036374;28;20172;-69
2022/07/22 03:52:40;;;;;;;11.10;10.10;;;19.90;99.90;;;;;;5036461;28;20198;-69
2022/07/22 03:55:07;;;;;;;11.10;10.00;;;20.00;99.90;;;;;;5018393;28;20553;-69
2022/07/22 03:57:33;;;;;;;12.00;10.90;;;20.10;99.90;;;;;;5037976;28;20195;-68
2022/07/22 03:59:58;;;;;;;12.07;10.87;;;19.90;99.90;;;;;;5056111;28;20431;-68
2022/07/22 04:02:24;;;;;;;10.33;9.43;;;19.90;99.90;;;;;;5055754;28;20198;-69
2022/07/22 04:04:50;;;;;;;10.17;9.33;;;19.90;99.90;;;;;;5053366;28;20202;-69
2022/07/22 04:07:15;;;;;;;10.60;9.63;;;20.00;99.90;;;;;;5018263;28;20165;-69
2022/07/22 04:09:41;;;;;;;10.60;9.60;;;20.00;99.90;;;;;;5035720;28;20643;-68
2022/07/22 04:12:07;;;;;;;10.83;9.80;;;19.90;99.90;;;;;;5036267;28;20254;-68
2022/07/22 04:15:11;;;;;;;10.93;10.00;;;19.80;99.90;;;;;;5036054;28;20325;-68
2022/07/22 04:17:37;;;;;;;10.80;9.97;;;19.90;99.90;;;;;;5034426;28;20737;-69
2022/07/22 04:20:05;;;;;;;10.10;9.30;;;19.90;99.90;;;;;;5035835;28;20801;-68
2022/07/22 04:22:30;;;;;;;11.73;9.50;;;19.90;99.90;;;;;;5017953;28;20408;-69
2022/07/22 04:24:56;;;;;;;10.83;9.83;;;19.90;99.90;;;;;;5017896;28;20421;-68
2022/07/22 04:27:23;;;;;;;11.93;10.93;;;19.90;99.90;;;;;;5036209;28;20167;-70
2022/07/22 04:29:49;;;;;;;13.20;11.90;;;19.90;99.90;;;;;;5055614;28;20173;-69
2022/07/22 04:32:14;;;;;;;15.70;13.60;;;19.90;99.90;;;;;;5055005;28;20397;-69
2022/07/22 04:34:41;;;;;;;12.80;11.50;;;19.80;99.90;;;;;;5055479;28;20218;-69
2022/07/22 04:37:07;;;;;;;12.43;11.27;;;19.90;99.90;;;;;;5055982;28;20201;-69
2022/07/22 04:39:33;;;;;;;12.80;11.60;;;19.90;99.90;;;;;;5055421;28;20893;-69
2022/07/22 04:41:58;;;;;;;11.50;10.50;;;20.00;99.90;;;;;;5055694;28;20194;-68
2022/07/22 04:44:24;;;;;;;11.90;10.90;;;20.00;99.90;;;;;;5055510;28;20575;-69
2022/07/22 04:46:49;;;;;;;12.40;11.40;;;19.90;99.90;;;;;;5054768;28;20504;-68
2022/07/22 04:49:15;;;;;;;12.37;11.33;;;19.90;99.90;;;;;;5055728;28;20163;-69
2022/07/22 04:51:41;;;;;;;11.83;10.83;;;20.00;99.90;;;;;;5055733;28;20252;-69
2022/07/22 04:54:06;;;;;;;12.20;11.00;;;20.10;99.90;;;;;;5055221;28;20159;-69
2022/07/22 04:56:32;;;;;;;13.60;12.37;;;20.10;99.90;;;;;;5036831;28;20214;-69
2022/07/22 04:58:57;;;;;;;11.43;10.30;;;20.10;99.90;;;;;;5055153;28;20217;-68
2022/07/22 05:01:23;;;;;;;11.47;10.43;;;20.20;99.90;;;;;;5055174;28;20641;-69
2022/07/22 05:03:49;;;;;;;12.67;11.67;;;20.30;99.90;;;;;;5054835;28;20235;-68
2022/07/22 05:06:14;;;;;;;12.53;11.43;;;20.50;99.90;;;;;;5054682;28;20202;-69
2022/07/22 05:08:40;;;;;;;10.70;9.77;;;20.60;99.90;;;;;;5054793;28;20167;-68
2022/07/22 05:11:07;;;;;;;13.57;12.30;;;20.60;99.90;;;;;;5055074;28;20638;-69
2022/07/22 05:13:32;;;;;;;11.77;10.70;;;20.60;99.90;;;;;;5054720;28;20216;-69
2022/07/22 05:16:03;;;;;;;12.23;11.13;;;20.70;99.90;;;;;;5054394;28;20829;-68
2022/07/22 05:18:29;;;;;;;11.57;10.57;;;20.80;99.90;;;;;;5054349;28;20158;-69
2022/07/22 05:20:54;;;;;;;12.37;11.13;;;20.80;99.90;;;;;;5054867;28;20397;-69
2022/07/22 05:23:20;;;;;;;12.07;10.90;;;20.90;99.90;;;;;;5054723;28;20161;-69
2022/07/22 05:25:46;;;;;;;12.40;11.23;;;20.90;99.90;;;;;;5054619;28;20201;-69
2022/07/22 05:28:11;;;;;;;12.33;11.30;;;21.10;99.90;;;;;;5054536;28;20726;-68
2022/07/22 05:30:37;;;;;;;13.03;11.73;;;21.20;99.90;;;;;;5054536;28;20196;-69
2022/07/22 05:33:03;;;;;;;12.93;11.73;;;21.20;99.90;;;;;;5053705;28;20173;-69
2022/07/22 05:35:28;;;;;;;15.60;12.10;;;21.30;99.90;;;;;;5036433;28;20647;-68
2022/07/22 05:37:54;;;;;;;14.47;13.17;;;21.40;99.90;;;;;;5054089;28;20636;-70
2022/07/22 05:40:19;;;;;;;14.07;12.67;;;21.50;99.90;;;;;;5054719;28;20155;-69
2022/07/22 05:42:45;;;;;;;13.43;12.10;;;21.40;99.90;;;;;;5054428;28;20193;-70
2022/07/22 05:45:10;;;;;;;12.20;10.90;;;21.40;99.90;;;;;;5053873;28;20213;-69
2022/07/22 05:47:36;;;;;;;12.80;11.80;;;21.20;99.90;;;;;;5053554;28;20159;-69
2022/07/22 05:50:02;;;;;;;16.60;13.23;;;21.20;99.90;;;;;;5052166;28;20240;-69
2022/07/22 05:52:28;;;;;;;13.90;12.70;;;21.30;99.90;;;;;;5025378;28;20229;-69
2022/07/22 05:54:53;;;;;;;14.13;12.67;;;21.50;99.90;;;;;;5014665;28;20419;-68
2022/07/22 05:57:19;;;;;;;14.77;13.57;;;21.60;99.90;;;;;;5015743;28;20222;-69
2022/07/22 05:59:44;;;;;;;13.37;12.17;;;21.70;99.90;;;;;;5015737;28;20528;-69
2022/07/22 06:02:10;;;;;;;14.00;12.80;;;21.70;99.90;;;;;;5033500;28;20159;-68
2022/07/22 06:07:15;;;;;;;13.43;12.30;;;21.60;99.90;;;;;;5011287;28;20211;-68
2022/07/22 06:09:41;;;;;;;12.23;11.23;;;21.50;99.90;;;;;;5014500;28;20890;-67
2022/07/22 06:12:07;;;;;;;14.90;12.97;;;21.50;99.90;;;;;;5014205;28;20160;-67
2022/07/22 06:14:33;;;;;;;15.77;13.37;;;21.50;99.90;;;;;;5013649;28;20191;-68
2022/07/22 06:16:59;;;;;;;12.93;11.73;;;21.50;99.90;;;;;;5013884;28;20196;-68
2022/07/22 06:19:24;;;;;;;13.07;11.77;;;21.60;99.90;;;;;;4996241;28;20418;-68
2022/07/22 06:21:50;;;;;;;14.10;12.80;;;21.60;99.90;;;;;;5013307;28;20593;-67
2022/07/22 06:24:16;;;;;;;12.57;11.47;;;21.70;99.90;;;;;;5013367;28;20168;-67
2022/07/22 06:26:42;;;;;;;14.17;12.87;;;22.00;99.90;;;;;;4996305;28;20537;-67
2022/07/22 06:29:07;;;;;;;13.50;12.20;;;22.00;99.90;;;;;;5013848;28;20243;-67
2022/07/22 06:31:33;;;;;;;13.93;12.63;;;22.10;99.90;;;;;;5013644;28;20259;-66
2022/07/22 06:33:59;;;;;;;13.57;12.27;;;21.70;99.90;;;;;;5013499;28;20168;-66
2022/07/22 06:36:24;;;;;;;13.07;11.70;;;21.70;99.90;;;;;;5025134;28;20199;-66
2022/07/22 06:38:50;;;;;;;14.37;12.90;;;21.80;99.90;;;;;;5033234;28;20176;-67
2022/07/22 06:41:19;;;;;;;13.50;12.30;;;22.10;99.90;;;;;;5033106;28;20164;-66
2022/07/22 06:43:45;;;;;;;15.77;14.30;;;22.10;99.90;;;;;;5015250;28;20731;-65
2022/07/22 06:46:10;;;;;;;13.00;11.90;;;22.20;99.90;;;;;;5032656;28;20532;-67
2022/07/22 06:48:36;;;;;;;15.40;14.00;;;22.10;99.90;;;;;;5032933;28;20887;-66
2022/07/22 06:51:02;;;;;;;13.13;12.03;;;22.00;99.90;;;;;;5032374;28;20170;-67
2022/07/22 06:53:27;;;;;;;14.03;12.67;;;21.90;99.90;;;;;;5033179;28;20167;-66
2022/07/22 06:55:53;;;;;;;14.13;12.67;;;21.90;99.90;;;;;;5032816;28;20199;-67
2022/07/22 06:58:19;;;;;;;13.83;12.40;;;22.10;99.90;;;;;;5032826;28;20688;-67
2022/07/22 07:00:44;;;;;;;14.63;13.23;;;22.40;99.90;;;;;;5024663;28;20171;-68
2022/07/22 07:03:10;;;;;;;14.50;13.00;;;22.60;99.90;;;;;;5012512;28;20617;-67
2022/07/22 07:05:36;;;;;;;14.90;13.40;;;22.50;99.90;;;;;;5018724;28;20252;-68
2022/07/22 07:08:02;;;;;;;13.17;12.07;;;22.60;99.90;;;;;;5014527;28;20215;-68
2022/07/22 07:10:27;;;;;;;14.70;13.30;;;22.60;99.90;;;;;;5032547;28;20160;-68
2022/07/22 07:12:59;;;;;;;15.13;13.83;;;22.20;99.90;;;;;;5032838;28;20748;-66
2022/07/22 07:15:25;;;;;;;14.53;13.13;;;22.20;99.90;;;;;;5032381;28;20270;-66
2022/07/22 07:17:52;;;;;;;14.43;13.13;;;22.30;99.90;;;;;;5032942;28;20895;-66
2022/07/22 07:20:18;;;;;;;13.57;12.47;;;22.50;99.90;;;;;;5036417;28;20405;-66
2022/07/22 07:22:44;;;;;;;13.53;12.30;;;22.70;99.90;;;;;;5036263;28;20394;-66
2022/07/22 07:25:10;;;;;;;13.90;12.60;;;23.10;99.90;;;;;;5036756;28;20186;-66
2022/07/22 07:27:36;;;;;;;13.40;12.17;;;23.40;99.90;;;;;;5036987;28;20175;-67
2022/07/22 07:30:03;;;;;;;12.83;11.53;;;23.10;99.90;;;;;;5036532;28;20163;-67
2022/07/22 07:32:29;;;;;;;13.53;11.83;;;23.00;99.90;;;;;;5036369;28;20448;-67
2022/07/22 07:34:54;;;;;;;13.23;12.03;;;23.20;99.90;;;;;;5035279;28;20401;-67
2022/07/22 07:37:20;;;;;;;11.63;10.53;;;23.30;99.90;;;;;;5035937;28;20191;-67
2022/07/22 07:39:45;;;;;;;12.90;11.60;;;23.60;99.90;;;;;;5036349;28;20160;-67
2022/07/22 07:42:11;;;;;;;12.80;11.60;;;23.90;99.90;;;;;;5036530;28;20498;-67
2022/07/22 07:44:37;;;;;;;14.73;11.90;;;23.90;99.90;;;;;;5036492;28;20175;-68
2022/07/22 07:47:03;;;;;;;12.43;11.23;;;24.20;99.90;;;;;;5036781;28;20263;-67
2022/07/22 07:49:28;;;;;;;13.47;12.20;;;24.30;99.90;;;;;;5035878;28;20217;-66
2022/07/22 07:51:54;;;;;;;12.67;11.60;;;24.40;99.90;;;;;;5035400;28;20863;-66
2022/07/22 07:54:20;;;;;;;14.83;12.10;;;24.30;99.90;;;;;;5031895;28;20247;-66
2022/07/22 07:56:46;;;;;;;13.60;12.30;;;24.30;99.90;;;;;;5016084;28;20200;-67
2022/07/22 07:59:11;;;;;;;13.77;12.57;;;24.30;99.90;;;;;;4998555;28;20211;-67
2022/07/22 08:01:37;;;;;;;14.13;12.73;;;24.30;99.90;;;;;;4998419;28;20160;-67
2022/07/22 08:04:03;;;;;;;16.20;13.03;;;24.30;99.90;;;;;;4998284;28;20258;-67
2022/07/22 08:06:28;;;;;;;16.67;13.37;;;23.90;99.90;;;;;;5029352;28;20203;-67
2022/07/22 08:08:54;;;;;;;12.00;10.90;;;24.00;99.90;;;;;;5035668;28;20191;-67
2022/07/22 08:11:20;;;;;;;14.17;12.87;;;24.20;99.90;;;;;;5035195;28;20202;-67
2022/07/22 08:13:45;;;;;;;15.37;13.60;;;24.40;99.90;;;;;;5035670;28;20584;-67
2022/07/22 08:16:11;;;;;;;13.97;12.60;;;24.20;99.90;;;;;;5034420;28;20187;-67
2022/07/22 08:18:36;;;;;;;12.47;11.20;;;24.30;99.90;;;;;;5035652;28;20242;-67
2022/07/22 08:21:02;;;;;;;15.00;13.60;;;24.30;99.90;;;;;;5035401;28;20534;-67
2022/07/22 08:23:28;;;;;;;13.10;11.90;;;24.40;99.90;;;;;;5017635;28;20163;-67
2022/07/22 08:25:53;;;;;;;13.17;11.87;;;24.50;99.90;;;;;;5035191;28;20191;-67
2022/07/22 08:28:19;;;;;;;14.27;13.07;;;24.80;99.90;;;;;;5035176;28;20175;-67
2022/07/22 08:30:45;;;;;;;14.40;13.00;;;24.70;99.90;;;;;;5016726;28;20213;-67
2022/07/22 08:33:11;;;;;;;13.30;12.10;;;24.60;99.90;;;;;;5035441;28;20221;-67
2022/07/22 08:35:36;;;;;;;13.70;12.50;;;24.70;99.90;;;;;;5035150;28;20417;-67
2022/07/22 08:38:02;;;;;;;14.53;13.03;;;24.80;99.90;;;;;;5034803;28;20198;-67
2022/07/22 08:40:28;;;;;;;12.70;11.50;;;24.90;99.90;;;;;;5033731;28;20179;-67
2022/07/22 08:42:54;;;;;;;12.97;11.83;;;25.00;99.90;;;;;;5035374;28;20398;-67
2022/07/22 08:45:20;;;;;;;12.63;11.63;;;25.20;99.90;;;;;;5034945;28;20194;-67
2022/07/22 08:47:48;;;;;;;12.40;11.20;;;25.30;99.90;;;;;;5016959;28;20167;-67
2022/07/22 08:50:14;;;;;;;12.03;10.83;;;25.20;99.90;;;;;;5034938;28;20413;-66
2022/07/22 08:52:40;;;;;;;13.13;11.93;;;25.40;99.90;;;;;;5034776;28;20880;-67
2022/07/22 08:55:07;;;;;;;13.67;12.23;;;25.60;99.90;;;;;;5034591;28;20422;-66
2022/07/22 08:57:33;;;;;;;12.57;11.50;;;25.90;99.90;;;;;;5035205;28;20534;-66
2022/07/22 09:00:00;;;;;;;12.27;11.23;;;25.90;99.90;;;;;;5005133;28;20861;-70
2022/07/22 09:02:27;;;;;;;13.03;11.90;;;25.70;99.90;;;;;;5015013;28;20168;-67
2022/07/22 09:05:04;;;;;;;12.77;11.70;;;25.50;99.90;;;;;;5015009;28;20419;-67
2022/07/22 09:07:34;;;;;;;12.80;11.70;;;25.70;99.90;;;;;;5014782;28;20394;-67
2022/07/22 09:10:00;;;;;;;12.80;11.50;;;25.80;99.90;;;;;;5014480;28;20506;-67
2022/07/22 09:12:31;;;;;;;12.80;11.50;;;26.00;99.90;;;;;;4997092;28;20415;-67
2022/07/22 09:14:59;;;;;;;12.73;11.63;;;26.00;99.90;;;;;;4997052;28;20407;-67
2022/07/22 09:17:29;;;;;;;11.50;10.60;;;26.10;99.90;;;;;;5014509;28;20486;-67
2022/07/22 09:19:59;;;;;;;12.50;10.40;;;26.20;99.90;;;;;;5014554;28;20403;-66
2022/07/22 09:22:31;;;;;;;11.90;11.00;;;26.30;99.90;;;;;;5014046;28;20732;-67
2022/07/22 09:24:57;;;;;;;12.63;11.47;;;26.70;99.90;;;;;;5014261;28;20387;-67
2022/07/22 09:27:27;;;;;;;12.83;11.53;;;26.60;99.90;;;;;;4995938;28;20429;-67
2022/07/22 09:29:53;;;;;;;11.63;10.67;;;26.40;99.90;;;;;;5014396;28;20523;-67
2022/07/22 09:32:19;;;;;;;11.90;9.77;;;26.30;99.90;;;;;;5014496;28;20830;-67
2022/07/22 09:34:44;;;;;;;11.40;10.40;;;26.30;99.90;;;;;;5014367;28;20419;-68
2022/07/22 09:37:11;;;;;;;11.70;10.60;;;26.50;99.90;;;;;;5014155;28;20683;-67
2022/07/22 09:39:37;;;;;;;11.83;10.87;;;26.60;99.90;;;;;;5014486;28;20599;-68
2022/07/22 09:42:05;;;;;;;11.90;10.80;;;26.80;99.90;;;;;;5012582;28;20442;-67
2022/07/22 09:44:31;;;;;;;12.23;10.93;;;26.80;99.90;;;;;;5013949;28;20696;-67
2022/07/22 09:46:57;;;;;;;11.73;10.63;;;26.80;99.90;;;;;;5013850;28;20462;-67
2022/07/22 09:49:39;;;;;;;11.60;10.50;;;26.50;99.90;;;;;;5013931;28;20484;-67
2022/07/22 09:52:06;;;;;;;10.50;9.50;;;26.70;99.90;;;;;;5014175;28;20475;-67
2022/07/22 09:54:32;;;;;;;11.27;10.37;;;26.80;99.90;;;;;;5013950;28;20403;-67
2022/07/22 09:56:58;;;;;;;10.83;9.90;;;26.90;99.90;;;;;;5025051;28;20453;-68
2022/07/22 09:59:24;;;;;;;16.70;10.60;;;27.10;99.90;;;;;;5033643;28;20394;-67
2022/07/22 10:01:55;;;;;;;9.53;8.67;;;27.40;99.90;;;;;;5015785;28;20497;-68
2022/07/22 10:04:22;;;;;;;10.47;9.47;;;27.70;99.90;;;;;;5030244;28;20406;-67
2022/07/22 10:06:49;;;;;;;9.37;8.60;;;27.80;99.90;;;;;;5013419;28;20443;-67
2022/07/22 10:09:17;;;;;;;10.50;9.50;;;27.90;99.90;;;;;;5013479;28;20411;-67
2022/07/22 10:11:46;;;;;;;10.17;9.40;;;27.70;99.90;;;;;;5013180;28;20399;-66
2022/07/22 10:14:14;;;;;;;10.63;9.73;;;27.70;99.90;;;;;;5013325;28;20403;-67
2022/07/22 10:16:40;;;;;;;9.90;9.00;;;27.70;99.90;;;;;;5013501;28;20451;-68
2022/07/22 10:19:06;;;;;;;11.10;10.00;;;28.00;99.90;;;;;;5014125;28;20414;-67
2022/07/22 10:21:34;;;;;;;10.43;9.43;;;28.30;99.90;;;;;;5013236;28;20395;-67
2022/07/22 10:24:23;;;;;;;10.57;9.63;;;28.40;99.90;;;;;;5013502;28;20612;-67
2022/07/22 10:26:57;;;;;;;10.30;9.30;;;28.50;99.30;;;;;;5005610;28;20461;-67
2022/07/22 10:29:47;;;;;;;11.63;9.43;;;28.40;99.50;;;;;;5033146;28;20785;-66
2022/07/22 10:32:15;;;;;;;10.13;9.23;;;28.40;99.30;;;;;;5033010;28;20382;-68
2022/07/22 10:35:02;;;;;;;10.83;9.87;;;28.20;99.80;;;;;;5033124;28;20403;-70
2022/07/22 10:37:34;;;;;;;10.17;9.30;;;28.30;99.80;;;;;;5032270;28;20532;-69
2022/07/22 10:40:20;;;;;;;10.10;9.30;;;28.50;99.30;;;;;;5033060;28;20891;-68
2022/07/22 10:43:01;;;;;;;10.20;9.30;;;28.80;99.70;;;;;;5032302;28;20390;-68
2022/07/22 10:45:30;;;;;;;10.10;9.30;;;28.50;99.00;;;;;;5032994;28;20424;-68
2022/07/22 10:47:57;;;;;;;10.33;9.23;;;28.70;99.00;;;;;;5032483;28;20417;-69
2022/07/22 10:50:35;;;;;;;9.43;8.63;;;28.90;98.40;;;;;;5031649;28;20421;-69
2022/07/22 10:53:05;;;;;;;9.50;8.70;;;28.90;98.60;;;;;;5032358;28;20402;-68
2022/07/22 10:55:31;;;;;;;10.17;9.37;;;28.80;98.80;;;;;;5033046;28;20433;-68
2022/07/22 10:57:56;;;;;;;9.43;8.67;;;28.90;98.40;;;;;;5032446;28;20485;-68
2022/07/22 11:00:22;;;;;;;9.30;8.50;;;28.80;98.90;;;;;;5032783;28;20250;-68
2022/07/22 11:02:48;;;;;;;8.97;8.27;;;29.00;98.60;;;;;;5032566;28;20218;-69
2022/07/22 11:05:23;;;;;;;8.73;8.03;;;29.30;97.80;;;;;;5032952;28;20234;-69
2022/07/22 11:07:49;;;;;;;8.90;8.10;;;29.60;98.10;;;;;;5033022;28;20388;-69
2022/07/22 11:10:17;;;;;;;8.83;8.20;;;29.70;96.80;;;;;;5032850;28;20942;-69
2022/07/22 11:12:43;;;;;;;9.30;8.50;;;29.60;96.90;;;;;;5032404;28;20175;-69
2022/07/22 11:15:10;;;;;;;13.03;8.67;;;29.80;97.50;;;;;;5032503;28;20452;-69
2022/07/22 11:17:37;;;;;;;9.23;8.33;;;30.00;97.00;;;;;;5032381;28;20958;-69
2022/07/22 11:20:05;;;;;;;8.80;7.97;;;30.20;96.50;;;;;;5032691;28;20530;-68
2022/07/22 11:22:31;;;;;;;10.67;9.57;;;30.20;95.90;;;;;;5013966;28;20487;-69
2022/07/22 11:24:59;;;;;;;9.73;8.93;;;30.20;96.10;;;;;;5032746;28;20410;-68
2022/07/22 11:27:25;;;;;;;9.93;9.03;;;30.30;95.80;;;;;;5032152;28;20176;-68
2022/07/22 11:29:53;;;;;;;9.20;8.40;;;30.20;95.40;;;;;;5033008;28;20531;-68
2022/07/22 11:32:23;;;;;;;8.43;7.73;;;30.70;94.80;;;;;;5032364;28;20620;-68
2022/07/22 11:34:49;;;;;;;7.70;7.07;;;31.90;90.10;;;;;;5032330;28;20410;-68
2022/07/22 11:37:19;;;;;;;8.20;7.53;;;33.50;85.40;;;;;;5032016;28;20456;-68
2022/07/22 11:39:46;;;;;;;7.70;7.00;;;34.30;81.90;;;;;;5032743;28;20501;-68
2022/07/22 11:42:12;;;;;;;7.67;7.13;;;34.80;78.90;;;;;;5032085;28;20405;-68
2022/07/22 11:44:39;;;;;;;7.10;6.50;;;35.80;71.50;;;;;;5032959;28;20410;-68
2022/07/22 11:47:07;;;;;;;6.50;6.00;;;36.40;69.80;;;;;;5032629;28;20450;-68
2022/07/22 11:49:34;;;;;;;7.63;6.50;;;36.90;67.10;;;;;;5033115;28;20413;-68
2022/07/22 11:52:04;;;;;;;6.10;5.60;;;36.10;65.40;;;;;;5015283;28;20784;-68
2022/07/22 11:54:30;;;;;;;6.53;6.07;;;36.80;65.20;;;;;;5007409;28;20418;-69
2022/07/22 11:56:56;;;;;;;6.27;5.87;;;38.60;60.70;;;;;;5028523;28;20457;-68
2022/07/22 11:59:21;;;;;;;6.43;5.93;;;39.10;59.60;;;;;;5032237;28;20635;-69
2022/07/22 12:01:48;;;;;;;6.67;6.00;;;38.30;58.00;;;;;;5028548;28;20498;-68
2022/07/22 12:04:21;;;;;;;6.60;6.10;;;38.10;60.10;;;;;;5012634;28;20211;-68
2022/07/22 12:06:47;;;;;;;6.60;6.00;;;38.10;58.50;;;;;;5040944;22;20516;-69
2022/07/22 12:09:24;;;;;;;7.63;6.93;;;40.40;55.50;;;;;;5035935;28;20390;-69
2022/07/22 12:11:54;;;;;;;6.90;6.40;;;40.20;53.60;;;;;;5035034;28;20409;-71
2022/07/22 12:14:22;;;;;;;6.90;6.33;;;38.80;55.00;;;;;;5036262;28;20402;-69
2022/07/22 12:17:01;;;;;;;6.40;6.00;;;38.30;56.10;;;;;;5048895;28;20842;-68
2022/07/22 12:19:29;;;;;;;7.47;6.37;;;38.90;54.40;;;;;;5051667;28;20417;-70
2022/07/22 12:21:58;;;;;;;6.30;5.80;;;39.50;53.20;;;;;;5036135;28;20397;-70
2022/07/22 12:24:27;;;;;;;6.57;5.97;;;40.10;52.00;;;;;;5035559;28;20398;-68
2022/07/22 12:26:54;;;;;;;6.10;5.63;;;39.60;52.30;;;;;;5035463;28;20426;-71
2022/07/22 12:29:26;;;;;;;5.97;5.57;;;39.90;51.40;;;;;;5035654;28;20752;-70
2022/07/22 12:32:03;;;;;;;5.87;5.37;;;40.10;49.40;;;;;;5036236;28;20861;-69
2022/07/22 12:34:39;;;;;;;6.57;6.03;;;39.60;49.60;;;;;;5035588;28;20373;-70
2022/07/22 12:37:31;;;;;;;6.70;6.07;;;39.10;49.40;;;;;;5035472;28;20524;-69